Weather at Podeweltz Airport

Public forecast

Using degrees Fahrenheit for public forecast. Weather courtesy of forecast.io.

Closest aviation weather report (METAR) to Podeweltz Airport

Closest report is Merrill Municipal Airport, 6.6 nm (12.1 km) WSW. Retrieved 2020/09/20 00:35 UTC (0 seconds ago):

KRRL 200035Z AUTO 00000KT 10SM CLR 14/08 A3024 RMK AO2 T01370080 TSNO

Closest aviation forecast (TAF) to Podeweltz Airport

Closest forecast is Wausau Downtown Airport, 19.0 nm (35.1 km) S. Retrieved 2020-09-20 00:22 UTC (0 seconds ago):

TAF KAUW 192320Z 2000/2024 19007KT P6SM FEW060 FM200300 17004KT P6SM SKC FM200900 13003KT P6SM SCT080 FM201400 16008KT P6SM SCT070 SCT140 FM201600 17013G22KT P6SM FEW070 BKN140 FM202200 17011G18KT P6SM BKN140